PILOTS ONLINE: 277    ATC ONLINE: 32

KTRM - Jacqueline Cochran Regional Airport

Location

City Palm Springs
Country  United States
Latitude 33° 37' 36" N
Longitude 116° 9' 36" W
Elevation -115 ft
Type Medium Airport

Runways

12/30 4995 ft / 100 ft
17/35 8500 ft / 150 ft

Weather

METAR
2014/08/02 05:52
KTRM 020552Z AUTO 00000KT 10SM CLR 31/23 A2973 RMK AO2 SLP071 T03110228 10394 20311 51015 TSNO
TAF
2014/08/02 06:21
TAF KTRM 020520Z 0206/0306 VRB05KT P6SM SCT200 
     FM021800 16010KT P6SM VCTS SCT090CB BKN150 
     FM030000 VRB05KT P6SM SCT090 BKN150

Outbound flights

Inbound flights